createdAt,value
2023-02-01T00:02:15.167Z,3.50
2023-02-01T00:04:43.221Z,3.50
2023-02-01T00:07:14.218Z,3.50
2023-02-01T00:09:42.422Z,3.50
2023-02-01T00:12:10.473Z,3.50
2023-02-01T00:14:40.828Z,3.50
2023-02-01T00:17:08.955Z,3.50
2023-02-01T00:19:37.127Z,3.50
2023-02-01T00:22:05.188Z,3.50
2023-02-01T00:24:33.221Z,3.50
2023-02-01T00:27:01.286Z,3.40
2023-02-01T00:29:29.425Z,3.50
2023-02-01T00:31:58.890Z,3.50
2023-02-01T00:34:26.995Z,3.50
2023-02-01T00:36:55.121Z,3.40
2023-02-01T00:39:24.068Z,3.50
2023-02-01T00:41:52.133Z,3.50
2023-02-01T00:44:20.170Z,3.50
2023-02-01T00:46:48.313Z,3.50
2023-02-01T00:49:17.948Z,3.50
2023-02-01T00:51:46.019Z,3.50
2023-02-01T00:54:14.131Z,3.50
2023-02-01T00:56:42.200Z,3.60
2023-02-01T00:59:12.572Z,3.60
2023-02-01T01:01:40.861Z,3.60
2023-02-01T01:04:08.936Z,3.60
2023-02-01T01:06:38.387Z,3.50
2023-02-01T01:09:07.395Z,3.50
2023-02-01T01:11:36.387Z,3.50
2023-02-01T01:14:04.591Z,3.50
2023-02-01T01:16:32.954Z,3.50
2023-02-01T01:19:01.054Z,3.50
2023-02-01T01:21:29.333Z,3.50
2023-02-01T01:23:58.728Z,3.40
2023-02-01T01:26:27.979Z,3.50
2023-02-01T01:28:57.237Z,3.50
2023-02-01T01:31:25.436Z,3.50
2023-02-01T01:33:55.206Z,3.40
2023-02-01T01:36:23.600Z,3.50
2023-02-01T01:38:51.819Z,3.50
2023-02-01T01:41:22.537Z,3.50
2023-02-01T01:43:53.407Z,3.40
2023-02-01T01:46:23.123Z,3.50
2023-02-01T01:48:52.771Z,3.50
2023-02-01T01:51:22.284Z,3.50
2023-02-01T01:53:52.212Z,3.50
2023-02-01T01:56:21.731Z,3.40
2023-02-01T01:58:49.777Z,3.40
2023-02-01T02:01:17.875Z,3.40
2023-02-01T02:03:46.356Z,3.40
2023-02-01T02:06:17.631Z,3.30
2023-02-01T02:08:45.668Z,3.30
2023-02-01T02:11:14.432Z,3.40
2023-02-01T02:13:44.531Z,3.30
2023-02-01T02:16:31.237Z,3.30
2023-02-01T02:19:07.606Z,3.20
2023-02-01T02:21:45.521Z,3.10
2023-02-01T02:24:43.695Z,3.10
2023-02-01T02:27:27.951Z,3.00
2023-02-01T02:30:24.929Z,3.00
2023-02-01T02:33:41.238Z,3.10
2023-02-01T02:36:10.935Z,3.00
2023-02-01T02:38:43.042Z,3.00
2023-02-01T02:41:35.712Z,3.00
2023-02-01T02:44:24.193Z,3.00
2023-02-01T02:47:09.934Z,3.00
2023-02-01T02:49:41.524Z,3.00
2023-02-01T02:52:29.378Z,3.00
2023-02-01T02:54:57.661Z,3.10
2023-02-01T02:57:44.636Z,3.10
2023-02-01T03:00:31.711Z,3.10
2023-02-01T03:03:17.609Z,3.10
2023-02-01T03:05:48.653Z,3.10
2023-02-01T03:08:18.040Z,3.20
2023-02-01T03:10:53.511Z,3.20
2023-02-01T03:13:26.093Z,3.20
2023-02-01T03:15:58.674Z,3.20
2023-02-01T03:18:28.985Z,3.20
2023-02-01T03:20:59.165Z,3.30
2023-02-01T03:23:29.991Z,3.20
2023-02-01T03:25:58.087Z,3.20
2023-02-01T03:28:26.254Z,3.30
2023-02-01T03:30:54.394Z,3.30
2023-02-01T03:33:23.987Z,3.30
2023-02-01T03:35:58.854Z,3.30
2023-02-01T03:38:29.591Z,3.30
2023-02-01T03:41:00.305Z,3.40
2023-02-01T03:43:28.569Z,3.30
2023-02-01T03:45:59.298Z,3.30
2023-02-01T03:48:28.147Z,3.30
2023-02-01T03:50:58.433Z,3.30
2023-02-01T03:53:26.545Z,3.30
2023-02-01T03:55:54.866Z,3.30
2023-02-01T03:58:23.772Z,3.30
2023-02-01T04:00:53.592Z,3.30
2023-02-01T04:03:22.681Z,3.30
2023-02-01T04:05:50.812Z,3.30
2023-02-01T04:08:21.966Z,3.30
2023-02-01T04:10:50.029Z,3.30
2023-02-01T04:13:18.182Z,3.40
2023-02-01T04:15:46.672Z,3.40
2023-02-01T04:18:14.743Z,3.40
2023-02-01T04:20:42.768Z,3.40
2023-02-01T04:23:10.842Z,3.50
2023-02-01T04:25:40.542Z,3.50
2023-02-01T04:28:10.057Z,3.50
2023-02-01T04:30:38.332Z,3.50
2023-02-01T04:33:07.330Z,3.50
2023-02-01T04:35:35.549Z,3.60
2023-02-01T04:38:03.617Z,3.60
2023-02-01T04:40:31.648Z,3.60
2023-02-01T04:43:01.355Z,3.60
2023-02-01T04:45:29.402Z,3.70
2023-02-01T04:47:57.455Z,3.70
2023-02-01T04:50:25.750Z,3.70
2023-02-01T04:52:53.821Z,3.80
2023-02-01T04:55:21.847Z,3.80
2023-02-01T04:57:49.902Z,3.70
2023-02-01T05:00:20.461Z,3.80
2023-02-01T05:02:48.633Z,3.80
2023-02-01T05:05:16.845Z,3.80
2023-02-01T05:07:44.952Z,3.80
2023-02-01T05:10:13.048Z,3.80
2023-02-01T05:12:58.587Z,3.80
2023-02-01T05:15:27.999Z,3.80
2023-02-01T05:17:56.096Z,3.80
2023-02-01T05:20:24.422Z,3.80
2023-02-01T05:22:52.643Z,3.80
2023-02-01T05:25:20.965Z,3.80
2023-02-01T05:27:49.029Z,3.80
2023-02-01T05:30:17.456Z,3.90
2023-02-01T05:32:46.869Z,3.90
2023-02-01T05:35:14.896Z,4.00
2023-02-01T05:37:42.971Z,4.00
2023-02-01T05:40:12.344Z,3.90
2023-02-01T05:42:40.433Z,4.00
2023-02-01T05:45:09.898Z,4.00
2023-02-01T05:47:37.965Z,4.00
2023-02-01T05:50:08.874Z,4.00
2023-02-01T05:52:36.948Z,4.00
2023-02-01T05:55:05.431Z,4.00
2023-02-01T05:57:33.503Z,3.90
2023-02-01T06:00:01.686Z,4.00
2023-02-01T06:02:29.824Z,3.90
2023-02-01T06:04:58.046Z,4.00
2023-02-01T06:07:29.566Z,3.90
2023-02-01T06:09:57.808Z,3.80
2023-02-01T06:12:25.940Z,3.80
2023-02-01T06:14:53.978Z,3.70
2023-02-01T06:17:22.155Z,3.70
2023-02-01T06:19:50.441Z,3.70
2023-02-01T06:22:18.488Z,3.70
2023-02-01T06:24:47.900Z,3.80
2023-02-01T06:27:15.936Z,3.80
2023-02-01T06:29:44.010Z,3.90
2023-02-01T06:32:12.358Z,3.80
2023-02-01T06:34:40.650Z,3.90
2023-02-01T06:37:08.679Z,3.90
2023-02-01T06:39:37.063Z,3.80
2023-02-01T06:42:06.565Z,3.80
2023-02-01T06:44:34.634Z,3.80
2023-02-01T06:47:02.752Z,3.80
2023-02-01T06:49:31.077Z,3.60
2023-02-01T06:52:01.149Z,3.70
2023-02-01T06:54:29.384Z,3.70
2023-02-01T06:56:57.411Z,3.80
2023-02-01T06:59:26.905Z,3.80
2023-02-01T07:01:54.993Z,3.70
2023-02-01T07:04:23.093Z,3.70
2023-02-01T07:06:51.123Z,3.70
2023-02-01T07:09:19.185Z,3.80
2023-02-01T07:11:47.234Z,3.70
2023-02-01T07:14:15.489Z,3.70
2023-02-01T07:16:44.866Z,3.80
2023-02-01T07:19:12.912Z,3.70
2023-02-01T07:21:40.948Z,3.70
2023-02-01T07:24:09.216Z,3.70
2023-02-01T07:26:37.292Z,3.60
2023-02-01T07:29:05.382Z,3.70
2023-02-01T07:31:33.505Z,3.70
2023-02-01T07:34:03.674Z,3.70
2023-02-01T07:36:31.708Z,3.70
2023-02-01T07:39:00.673Z,3.70
2023-02-01T07:41:28.721Z,3.80
2023-02-01T07:43:56.947Z,3.70
2023-02-01T07:46:25.127Z,3.70
2023-02-01T07:48:53.224Z,3.80
2023-02-01T07:51:22.613Z,3.80
2023-02-01T07:53:50.684Z,3.80
2023-02-01T07:56:19.653Z,3.90
2023-02-01T07:58:49.683Z,3.90
2023-02-01T08:01:25.454Z,3.80
2023-02-01T08:03:54.854Z,3.90
2023-02-01T08:06:24.652Z,3.90
2023-02-01T08:08:52.986Z,3.90
2023-02-01T08:11:21.469Z,3.80
2023-02-01T08:13:49.659Z,3.70
2023-02-01T08:16:18.516Z,3.80
2023-02-01T08:18:46.733Z,3.70
2023-02-01T08:21:16.644Z,3.70
2023-02-01T08:23:46.086Z,3.60
2023-02-01T08:26:15.724Z,3.70
2023-02-01T08:28:44.498Z,3.70
2023-02-01T08:31:15.824Z,3.70
2023-02-01T08:33:44.227Z,3.70
2023-02-01T08:36:12.686Z,3.70
2023-02-01T08:38:41.315Z,3.60
2023-02-01T08:41:12.100Z,3.70
2023-02-01T08:43:40.172Z,3.60
2023-02-01T08:46:08.302Z,3.50
2023-02-01T08:48:36.529Z,3.60
2023-02-01T08:51:05.437Z,3.50
2023-02-01T08:53:33.712Z,3.60
2023-02-01T08:56:01.795Z,3.50
2023-02-01T08:58:31.231Z,3.60
2023-02-01T09:00:59.301Z,3.50
2023-02-01T09:03:27.374Z,3.50
2023-02-01T09:06:01.384Z,3.50
2023-02-01T09:08:29.561Z,3.50
2023-02-01T09:11:03.180Z,3.50
2023-02-01T09:13:32.953Z,3.50
2023-02-01T09:16:01.817Z,3.60
2023-02-01T09:18:29.992Z,3.60
2023-02-01T09:20:58.037Z,3.60
2023-02-01T09:23:26.174Z,3.50
2023-02-01T09:25:54.247Z,3.50
2023-02-01T09:28:22.305Z,3.50
2023-02-01T09:30:51.772Z,3.60
2023-02-01T09:33:19.869Z,3.60
2023-02-01T09:35:47.892Z,3.60
2023-02-01T09:38:15.948Z,3.70
2023-02-01T09:40:44.901Z,3.70
2023-02-01T09:43:19.547Z,3.80
2023-02-01T09:45:53.816Z,3.80
2023-02-01T09:48:22.692Z,3.80
2023-02-01T09:50:52.839Z,3.80
2023-02-01T09:53:23.774Z,3.90
2023-02-01T09:55:52.406Z,3.90
2023-02-01T09:58:22.399Z,3.90
2023-02-01T10:00:54.678Z,4.00
2023-02-01T10:03:22.854Z,4.10
2023-02-01T10:06:13.590Z,4.10
2023-02-01T10:09:02.888Z,4.10
2023-02-01T10:11:49.168Z,4.00
2023-02-01T10:14:26.510Z,3.90
2023-02-01T10:16:59.197Z,3.90
2023-02-01T10:19:33.471Z,4.00
2023-02-01T10:22:02.789Z,4.20
2023-02-01T10:24:38.190Z,4.20
2023-02-01T10:27:20.121Z,4.30
2023-02-01T10:29:50.568Z,4.40
2023-02-01T10:32:21.976Z,4.60
2023-02-01T10:34:52.106Z,4.50
2023-02-01T10:37:27.330Z,4.70
2023-02-01T10:39:55.988Z,4.60
2023-02-01T10:42:25.824Z,4.80
2023-02-01T10:44:53.897Z,4.80
2023-02-01T10:47:23.463Z,5.00
2023-02-01T10:49:55.121Z,5.00
2023-02-01T10:52:25.223Z,5.10
2023-02-01T10:54:53.267Z,5.20
2023-02-01T10:57:26.668Z,5.20
2023-02-01T10:59:54.732Z,5.20
2023-02-01T11:02:29.497Z,5.30
2023-02-01T11:05:04.585Z,5.40
2023-02-01T11:07:32.691Z,5.50
2023-02-01T11:10:00.715Z,5.50
2023-02-01T11:12:33.152Z,5.40
2023-02-01T11:15:04.525Z,5.50
2023-02-01T11:17:37.328Z,5.50
2023-02-01T11:20:08.026Z,5.60
2023-02-01T11:22:36.054Z,5.50
2023-02-01T11:25:04.193Z,5.70
2023-02-01T11:27:33.367Z,5.80
2023-02-01T11:30:03.233Z,5.90
2023-02-01T11:32:31.366Z,5.90
2023-02-01T11:35:03.492Z,6.00
2023-02-01T11:37:33.372Z,6.20
2023-02-01T11:40:02.278Z,6.20
2023-02-01T11:42:30.605Z,6.00
2023-02-01T11:45:20.406Z,5.90
2023-02-01T11:47:48.444Z,5.70
2023-02-01T11:50:22.359Z,5.70
2023-02-01T11:52:57.826Z,5.60
2023-02-01T11:55:45.099Z,5.70
2023-02-01T11:58:24.994Z,5.70
2023-02-01T12:01:17.857Z,5.50
2023-02-01T12:04:19.796Z,5.50
2023-02-01T12:06:53.301Z,5.50
2023-02-01T12:09:37.699Z,5.10
2023-02-01T12:12:11.186Z,5.10
2023-02-01T12:14:56.186Z,5.10
2023-02-01T12:17:50.597Z,4.90
2023-02-01T12:20:31.172Z,5.00
2023-02-01T12:23:11.397Z,5.10
2023-02-01T12:25:45.851Z,5.20
2023-02-01T12:28:24.786Z,5.30
2023-02-01T12:31:13.463Z,5.20
2023-02-01T12:33:52.049Z,5.30
2023-02-01T12:36:23.338Z,5.20
2023-02-01T12:38:57.545Z,5.10
2023-02-01T12:41:55.847Z,5.20
2023-02-01T12:44:37.294Z,5.20
2023-02-01T12:47:08.599Z,5.30
2023-02-01T12:49:45.401Z,5.30
2023-02-01T12:52:15.655Z,5.30
2023-02-01T12:54:47.654Z,5.30
2023-02-01T12:57:17.399Z,5.30
2023-02-01T12:59:48.864Z,5.20
2023-02-01T13:02:18.362Z,5.20
2023-02-01T13:04:54.898Z,5.20
2023-02-01T13:07:24.706Z,5.30
2023-02-01T13:09:55.550Z,5.30
2023-02-01T13:12:25.282Z,5.50
2023-02-01T13:14:56.089Z,5.50
2023-02-01T13:17:25.743Z,5.50
2023-02-01T13:19:56.080Z,5.70
2023-02-01T13:22:27.497Z,5.40
2023-02-01T13:24:59.220Z,5.40
2023-02-01T13:27:31.245Z,5.30
2023-02-01T13:30:00.909Z,5.50
2023-02-01T13:33:51.324Z,5.50
2023-02-01T13:35:57.591Z,5.50
2023-02-01T13:38:51.778Z,5.40
2023-02-01T13:41:28.972Z,5.40
2023-02-01T13:43:58.423Z,5.30
2023-02-01T13:46:26.553Z,5.20
2023-02-01T13:48:58.395Z,5.30
2023-02-01T13:51:38.202Z,5.10
2023-02-01T13:54:06.580Z,4.90
2023-02-01T13:56:43.672Z,4.80
2023-02-01T13:59:53.478Z,4.50
2023-02-01T14:03:17.068Z,3.90
2023-02-01T14:06:02.206Z,3.60
2023-02-01T14:08:41.779Z,3.60
2023-02-01T14:11:11.945Z,3.30
2023-02-01T14:13:41.713Z,3.10
2023-02-01T14:16:17.123Z,3.00
2023-02-01T14:18:59.630Z,3.10
2023-02-01T14:21:29.425Z,2.90
2023-02-01T14:24:00.052Z,2.90
2023-02-01T14:26:28.747Z,2.90
2023-02-01T14:29:03.413Z,3.00
2023-02-01T14:31:44.706Z,3.00
2023-02-01T14:34:15.661Z,3.00
2023-02-01T14:36:47.665Z,3.00
2023-02-01T14:39:23.507Z,3.10
2023-02-01T14:41:55.295Z,3.20
2023-02-01T14:44:37.183Z,3.20
2023-02-01T14:47:07.107Z,3.20
2023-02-01T14:49:35.596Z,3.40
2023-02-01T14:52:06.986Z,3.40
2023-02-01T14:54:35.041Z,3.40
2023-02-01T14:57:03.146Z,3.30
2023-02-01T14:59:34.314Z,3.20
2023-02-01T15:02:03.793Z,3.20
2023-02-01T15:04:32.877Z,3.20
2023-02-01T15:07:06.092Z,3.20
2023-02-01T15:09:36.054Z,3.30
2023-02-01T15:12:05.472Z,3.40
2023-02-01T15:14:35.214Z,3.40
2023-02-01T15:17:04.693Z,3.50
2023-02-01T15:19:32.859Z,3.60
2023-02-01T15:22:01.076Z,3.60
2023-02-01T15:24:30.127Z,3.60
2023-02-01T15:27:04.664Z,3.70
2023-02-01T15:29:33.509Z,3.70
2023-02-01T15:32:02.013Z,3.70
2023-02-01T15:34:49.567Z,3.80
2023-02-01T15:37:17.770Z,3.90
2023-02-01T15:40:08.835Z,3.90
2023-02-01T15:42:36.898Z,4.00
2023-02-01T15:45:05.562Z,4.10
2023-02-01T15:47:33.936Z,4.10
2023-02-01T15:50:03.373Z,4.10
2023-02-01T15:52:36.313Z,4.20
2023-02-01T15:55:05.476Z,4.20
2023-02-01T15:57:35.136Z,4.20
2023-02-01T16:00:05.268Z,4.30
2023-02-01T16:02:45.016Z,4.20
2023-02-01T16:05:31.245Z,4.10
2023-02-01T16:08:04.834Z,4.10
2023-02-01T16:10:33.151Z,4.00
2023-02-01T16:13:01.402Z,4.00
2023-02-01T16:15:30.851Z,4.00
2023-02-01T16:17:58.922Z,4.00
2023-02-01T16:20:28.353Z,4.10
2023-02-01T16:22:56.388Z,4.10
2023-02-01T16:25:24.762Z,4.10
2023-02-01T16:27:52.945Z,4.10
2023-02-01T16:30:24.085Z,4.10
2023-02-01T16:32:55.913Z,4.10
2023-02-01T16:35:26.368Z,4.10
2023-02-01T16:37:55.953Z,4.00
2023-02-01T16:40:24.002Z,4.00
2023-02-01T16:42:52.783Z,4.00
2023-02-01T16:45:21.017Z,4.00
2023-02-01T16:47:52.350Z,3.90
2023-02-01T16:50:23.756Z,3.90
2023-02-01T16:52:52.194Z,3.80
2023-02-01T16:55:23.666Z,3.80
2023-02-01T16:57:51.996Z,3.70
2023-02-01T17:00:25.093Z,3.70
2023-02-01T17:02:54.259Z,3.60
2023-02-01T17:05:24.044Z,3.50
2023-02-01T17:07:52.526Z,3.40
2023-02-01T17:10:34.128Z,3.40
2023-02-01T17:13:03.006Z,3.30
2023-02-01T17:15:34.938Z,3.30
2023-02-01T17:18:03.159Z,3.30
2023-02-01T17:20:33.076Z,3.30
2023-02-01T17:23:01.222Z,3.30
2023-02-01T17:25:30.630Z,3.30
2023-02-01T17:27:58.650Z,3.40
2023-02-01T17:30:26.703Z,3.40
2023-02-01T17:32:55.336Z,3.40
2023-02-01T17:35:25.149Z,3.40
2023-02-01T17:37:55.394Z,3.50
2023-02-01T17:40:24.249Z,3.50
2023-02-01T17:42:57.608Z,3.50
2023-02-01T17:45:37.652Z,3.50
2023-02-01T17:48:06.686Z,3.50
2023-02-01T17:50:36.964Z,3.50
2023-02-01T17:53:06.105Z,3.60
2023-02-01T17:55:35.740Z,3.60
2023-02-01T17:58:05.345Z,3.60
2023-02-01T18:00:33.498Z,3.60
2023-02-01T18:03:02.239Z,3.60
2023-02-01T18:05:36.760Z,3.60
2023-02-01T18:08:04.851Z,3.60
2023-02-01T18:10:32.871Z,3.70
2023-02-01T18:13:01.243Z,3.70
2023-02-01T18:15:31.403Z,3.70
2023-02-01T18:17:59.905Z,3.70
2023-02-01T18:20:27.931Z,3.70
2023-02-01T18:22:55.992Z,3.70
2023-02-01T18:25:25.233Z,3.70
2023-02-01T18:27:53.901Z,3.70
2023-02-01T18:30:22.640Z,3.70
2023-02-01T18:32:52.079Z,3.70
2023-02-01T18:35:22.090Z,3.70
2023-02-01T18:37:50.406Z,3.70
2023-02-01T18:40:19.464Z,3.70
2023-02-01T18:42:47.521Z,3.70
2023-02-01T18:45:30.731Z,3.60
2023-02-01T18:48:00.766Z,3.60
2023-02-01T18:50:29.530Z,3.70
2023-02-01T18:52:58.755Z,3.60
2023-02-01T18:55:27.249Z,3.70
2023-02-01T18:57:55.380Z,3.70
2023-02-01T19:00:23.565Z,3.70
2023-02-01T19:02:51.731Z,3.70
2023-02-01T19:05:21.820Z,3.70
2023-02-01T19:07:49.970Z,3.70
2023-02-01T19:10:19.081Z,3.70
2023-02-01T19:12:47.141Z,3.80
2023-02-01T19:15:15.822Z,3.80
2023-02-01T19:17:45.357Z,3.80
2023-02-01T19:20:13.904Z,3.80
2023-02-01T19:22:43.353Z,3.80
2023-02-01T19:25:11.655Z,3.80
2023-02-01T19:27:39.715Z,3.90
2023-02-01T19:30:11.649Z,3.90
2023-02-01T19:32:40.472Z,4.00
2023-02-01T19:35:09.757Z,4.00
2023-02-01T19:37:37.843Z,4.00
2023-02-01T19:40:08.980Z,4.00
2023-02-01T19:42:37.033Z,4.00
2023-02-01T19:45:05.574Z,3.90
2023-02-01T19:47:33.625Z,3.90
2023-02-01T19:50:01.653Z,3.90
2023-02-01T19:52:29.725Z,3.90
2023-02-01T19:54:57.715Z,3.80
2023-02-01T19:57:27.138Z,3.80
2023-02-01T19:59:55.163Z,3.80
2023-02-01T20:02:22.658Z,3.90
2023-02-01T20:04:50.689Z,3.90
2023-02-01T20:07:18.736Z,3.90
2023-02-01T20:09:46.751Z,3.90
2023-02-01T20:12:14.792Z,3.90
2023-02-01T20:14:44.164Z,3.90
2023-02-01T20:17:14.422Z,3.90
2023-02-01T20:19:42.468Z,3.90
2023-02-01T20:22:10.514Z,3.90
2023-02-01T20:24:39.705Z,3.90
2023-02-01T20:27:10.261Z,4.00
2023-02-01T20:29:38.296Z,4.00
2023-02-01T20:32:07.741Z,4.00
2023-02-01T20:34:35.763Z,4.00
2023-02-01T20:37:03.804Z,4.00
2023-02-01T20:39:31.830Z,4.00
2023-02-01T20:42:00.071Z,3.90
2023-02-01T20:44:28.174Z,3.90
2023-02-01T20:46:56.251Z,3.90
2023-02-01T20:49:25.792Z,3.80
2023-02-01T20:51:53.882Z,3.90
2023-02-01T20:54:21.963Z,3.90
2023-02-01T20:56:50.002Z,3.80
2023-02-01T20:59:18.038Z,3.80
2023-02-01T21:01:53.087Z,3.80
2023-02-01T21:04:22.924Z,3.80
2023-02-01T21:06:52.328Z,3.80
2023-02-01T21:09:20.369Z,3.80
2023-02-01T21:11:48.440Z,3.80
2023-02-01T21:14:16.464Z,3.80
2023-02-01T21:16:44.521Z,3.80
2023-02-01T21:19:12.591Z,3.80
2023-02-01T21:21:42.177Z,3.90
2023-02-01T21:24:11.662Z,3.80
2023-02-01T21:26:42.097Z,3.90
2023-02-01T21:29:10.760Z,3.90
2023-02-01T21:31:38.982Z,3.90
2023-02-01T21:34:07.799Z,3.90
2023-02-01T21:36:36.156Z,4.00
2023-02-01T21:39:05.197Z,4.00
2023-02-01T21:41:52.934Z,4.00
2023-02-01T21:44:20.960Z,4.10
2023-02-01T21:46:49.069Z,4.10
2023-02-01T21:49:17.111Z,4.10
2023-02-01T21:51:45.212Z,4.10
2023-02-01T21:54:13.386Z,4.10
2023-02-01T21:56:42.816Z,4.10
2023-02-01T21:59:11.395Z,4.10
2023-02-01T22:01:39.721Z,4.10
2023-02-01T22:04:07.904Z,4.10
2023-02-01T22:06:37.565Z,4.10
2023-02-01T22:09:05.889Z,4.10
2023-02-01T22:11:33.990Z,4.10
2023-02-01T22:14:03.391Z,4.10
2023-02-01T22:16:31.890Z,4.10
2023-02-01T22:19:00.123Z,4.20
2023-02-01T22:21:28.340Z,4.20
2023-02-01T22:23:57.591Z,4.20
2023-02-01T22:26:25.789Z,4.20
2023-02-01T22:28:54.003Z,4.20
2023-02-01T22:31:23.728Z,4.20
2023-02-01T22:33:51.928Z,4.20
2023-02-01T22:36:20.022Z,4.20
2023-02-01T22:38:48.576Z,4.20
2023-02-01T22:41:16.632Z,4.20
2023-02-01T22:43:44.674Z,4.20
2023-02-01T22:46:13.605Z,4.30
2023-02-01T22:48:44.350Z,4.20
2023-02-01T22:51:16.216Z,4.20
2023-02-01T22:53:44.262Z,4.20
2023-02-01T22:56:13.131Z,4.20
2023-02-01T22:58:41.342Z,4.20
2023-02-01T23:01:09.744Z,4.20
2023-02-01T23:03:37.900Z,4.20
2023-02-01T23:06:08.022Z,4.30
2023-02-01T23:08:36.348Z,4.20
2023-02-01T23:11:05.508Z,4.20
2023-02-01T23:13:33.682Z,4.30
2023-02-01T23:16:05.693Z,4.30
2023-02-01T23:18:33.790Z,4.30
2023-02-01T23:21:05.071Z,4.30
2023-02-01T23:23:34.481Z,4.30
2023-02-01T23:26:02.536Z,4.30
2023-02-01T23:28:30.965Z,4.30
2023-02-01T23:30:59.104Z,4.30
2023-02-01T23:33:27.814Z,4.30
2023-02-01T23:35:57.285Z,4.40
2023-02-01T23:38:25.396Z,4.40
2023-02-01T23:40:57.933Z,4.40
2023-02-01T23:43:43.303Z,4.30
2023-02-01T23:46:11.472Z,4.30
2023-02-01T23:48:39.560Z,4.40
2023-02-01T23:51:07.702Z,4.30
2023-02-01T23:53:35.779Z,4.30
2023-02-01T23:56:05.715Z,4.30
2023-02-01T23:58:33.762Z,4.30
